sensor_id;sensor_type;location;lat;lon;timestamp;pressure;altitude;pressure_sealevel;temperature;humidity
70343;BME280;57767;42.068;24.752;2023-03-25T00:00:11;98660.59;;;10.50;55.20
70343;BME280;57767;42.068;24.752;2023-03-25T00:01:16;98661.63;;;10.49;55.92
70343;BME280;57767;42.068;24.752;2023-03-25T00:02:20;98657.38;;;10.48;56.02
70343;BME280;57767;42.068;24.752;2023-03-25T00:03:23;98654.13;;;10.46;56.13
70343;BME280;57767;42.068;24.752;2023-03-25T00:04:26;98653.72;;;10.42;56.42
70343;BME280;57767;42.068;24.752;2023-03-25T00:05:28;98648.72;;;10.34;57.03
70343;BME280;57767;42.068;24.752;2023-03-25T00:06:30;98643.63;;;10.32;56.74
70343;BME280;57767;42.068;24.752;2023-03-25T00:07:35;98638.78;;;10.29;56.64
70343;BME280;57767;42.068;24.752;2023-03-25T00:08:37;98649.31;;;10.36;57.07
70343;BME280;57767;42.068;24.752;2023-03-25T00:09:39;98650.75;;;10.32;56.66
70343;BME280;57767;42.068;24.752;2023-03-25T00:10:40;98648.31;;;10.30;56.80
70343;BME280;57767;42.068;24.752;2023-03-25T00:11:42;98637.00;;;10.23;57.20
70343;BME280;57767;42.068;24.752;2023-03-25T00:12:44;98640.00;;;10.27;56.78
70343;BME280;57767;42.068;24.752;2023-03-25T00:13:46;98647.72;;;10.28;57.44
70343;BME280;57767;42.068;24.752;2023-03-25T00:14:48;98637.38;;;10.27;57.42
70343;BME280;57767;42.068;24.752;2023-03-25T00:16:01;98637.19;;;10.22;56.41
70343;BME280;57767;42.068;24.752;2023-03-25T00:17:04;98648.72;;;10.27;57.31
70343;BME280;57767;42.068;24.752;2023-03-25T00:18:07;98647.09;;;10.26;57.19
70343;BME280;57767;42.068;24.752;2023-03-25T00:19:09;98653.44;;;10.25;57.06
70343;BME280;57767;42.068;24.752;2023-03-25T00:20:10;98653.00;;;10.28;56.46
70343;BME280;57767;42.068;24.752;2023-03-25T00:21:13;98641.88;;;10.20;57.59
70343;BME280;57767;42.068;24.752;2023-03-25T00:22:18;98649.16;;;10.24;57.36
70343;BME280;57767;42.068;24.752;2023-03-25T00:23:21;98648.72;;;10.27;56.85
70343;BME280;57767;42.068;24.752;2023-03-25T00:24:23;98646.91;;;10.28;56.74
70343;BME280;57767;42.068;24.752;2023-03-25T00:25:24;98645.50;;;10.25;57.10
70343;BME280;57767;42.068;24.752;2023-03-25T00:26:26;98638.81;;;10.23;56.76
70343;BME280;57767;42.068;24.752;2023-03-25T00:27:30;98647.91;;;10.27;56.97
70343;BME280;57767;42.068;24.752;2023-03-25T00:28:34;98648.72;;;10.27;57.14
70343;BME280;57767;42.068;24.752;2023-03-25T00:29:37;98646.53;;;10.24;57.32
70343;BME280;57767;42.068;24.752;2023-03-25T00:30:42;98651.22;;;10.22;56.80
70343;BME280;57767;42.068;24.752;2023-03-25T00:31:44;98645.31;;;10.20;56.67
70343;BME280;57767;42.068;24.752;2023-03-25T00:32:46;98651.63;;;10.19;56.56
70343;BME280;57767;42.068;24.752;2023-03-25T00:33:50;98646.34;;;10.19;57.48
70343;BME280;57767;42.068;24.752;2023-03-25T00:34:52;98647.94;;;10.14;57.39
70343;BME280;57767;42.068;24.752;2023-03-25T00:35:54;98640.69;;;10.09;57.53
70343;BME280;57767;42.068;24.752;2023-03-25T00:37:02;98641.09;;;10.13;57.61
70343;BME280;57767;42.068;24.752;2023-03-25T00:38:04;98638.66;;;10.11;56.93
70343;BME280;57767;42.068;24.752;2023-03-25T00:39:08;98641.69;;;10.08;56.93
70343;BME280;57767;42.068;24.752;2023-03-25T00:40:10;98641.50;;;10.10;56.90
70343;BME280;57767;42.068;24.752;2023-03-25T00:42:15;98640.28;;;10.12;56.54
70343;BME280;57767;42.068;24.752;2023-03-25T00:43:17;98632.13;;;10.14;56.40
70343;BME280;57767;42.068;24.752;2023-03-25T00:44:19;98633.75;;;10.15;56.43
70343;BME280;57767;42.068;24.752;2023-03-25T00:45:22;98624.19;;;10.14;56.49
70343;BME280;57767;42.068;24.752;2023-03-25T00:46:27;98624.81;;;10.16;56.15
70343;BME280;57767;42.068;24.752;2023-03-25T00:47:29;98616.28;;;10.14;56.04
70343;BME280;57767;42.068;24.752;2023-03-25T00:48:31;98622.97;;;10.16;57.01
70343;BME280;57767;42.068;24.752;2023-03-25T00:49:33;98622.63;;;10.13;56.08
70343;BME280;57767;42.068;24.752;2023-03-25T00:50:35;98623.19;;;10.15;56.79
70343;BME280;57767;42.068;24.752;2023-03-25T00:51:37;98622.97;;;10.16;56.40
70343;BME280;57767;42.068;24.752;2023-03-25T00:52:53;98620.53;;;10.15;56.16
70343;BME280;57767;42.068;24.752;2023-03-25T00:53:57;98626.44;;;10.17;56.60
70343;BME280;57767;42.068;24.752;2023-03-25T00:55:03;98605.78;;;10.07;56.42
70343;BME280;57767;42.068;24.752;2023-03-25T00:56:06;98613.88;;;10.12;56.74
70343;BME280;57767;42.068;24.752;2023-03-25T00:57:08;98614.50;;;10.07;56.95
70343;BME280;57767;42.068;24.752;2023-03-25T00:58:09;98615.28;;;10.15;56.72
70343;BME280;57767;42.068;24.752;2023-03-25T00:59:11;98619.53;;;10.16;56.91
70343;BME280;57767;42.068;24.752;2023-03-25T01:00:16;98621.56;;;10.14;56.19
70343;BME280;57767;42.068;24.752;2023-03-25T01:01:21;98621.81;;;10.12;56.65
70343;BME280;57767;42.068;24.752;2023-03-25T01:02:24;98610.25;;;10.06;56.66
70343;BME280;57767;42.068;24.752;2023-03-25T01:03:26;98615.53;;;10.06;56.76
70343;BME280;57767;42.068;24.752;2023-03-25T01:04:29;98622.63;;;10.06;57.03
70343;BME280;57767;42.068;24.752;2023-03-25T01:05:31;98608.22;;;10.02;56.97
70343;BME280;57767;42.068;24.752;2023-03-25T01:06:34;98613.94;;;9.99;56.33
70343;BME280;57767;42.068;24.752;2023-03-25T01:07:38;98613.91;;;10.05;57.26
70343;BME280;57767;42.068;24.752;2023-03-25T01:08:41;98620.00;;;10.06;56.83
70343;BME280;57767;42.068;24.752;2023-03-25T01:09:43;98628.09;;;10.04;57.02
70343;BME280;57767;42.068;24.752;2023-03-25T01:10:47;98610.06;;;10.01;57.04
70343;BME280;57767;42.068;24.752;2023-03-25T01:11:49;98614.91;;;10.04;57.09
70343;BME280;57767;42.068;24.752;2023-03-25T01:12:51;98610.88;;;10.02;57.31
70343;BME280;57767;42.068;24.752;2023-03-25T01:13:56;98616.38;;;10.00;57.23
70343;BME280;57767;42.068;24.752;2023-03-25T01:15:00;98617.63;;;9.91;58.08
70343;BME280;57767;42.068;24.752;2023-03-25T01:16:05;98617.66;;;9.85;58.04
70343;BME280;57767;42.068;24.752;2023-03-25T01:17:08;98615.81;;;9.85;58.50
70343;BME280;57767;42.068;24.752;2023-03-25T01:18:10;98616.84;;;9.78;58.93
70343;BME280;57767;42.068;24.752;2023-03-25T01:19:14;98606.94;;;9.66;58.97
70343;BME280;57767;42.068;24.752;2023-03-25T01:20:17;98616.09;;;9.64;58.96
70343;BME280;57767;42.068;24.752;2023-03-25T01:21:19;98606.56;;;9.63;58.80
70343;BME280;57767;42.068;24.752;2023-03-25T01:22:21;98600.91;;;9.53;58.65
70343;BME280;57767;42.068;24.752;2023-03-25T01:23:23;98602.13;;;9.50;59.16
70343;BME280;57767;42.068;24.752;2023-03-25T01:24:25;98608.00;;;9.52;59.42
70343;BME280;57767;42.068;24.752;2023-03-25T01:25:26;98606.22;;;9.46;59.20
70343;BME280;57767;42.068;24.752;2023-03-25T01:26:29;98593.47;;;9.37;59.78
70343;BME280;57767;42.068;24.752;2023-03-25T01:27:31;98590.22;;;9.34;59.56
70343;BME280;57767;42.068;24.752;2023-03-25T01:28:33;98598.13;;;9.34;60.39
70343;BME280;57767;42.068;24.752;2023-03-25T01:29:35;98599.75;;;9.29;59.81
70343;BME280;57767;42.068;24.752;2023-03-25T01:30:36;98607.47;;;9.37;59.98
70343;BME280;57767;42.068;24.752;2023-03-25T01:31:38;98597.31;;;9.34;59.81
70343;BME280;57767;42.068;24.752;2023-03-25T01:32:41;98595.50;;;9.28;60.52
70343;BME280;57767;42.068;24.752;2023-03-25T01:33:43;98603.03;;;9.18;59.77
70343;BME280;57767;42.068;24.752;2023-03-25T01:34:44;98588.03;;;9.05;61.00
70343;BME280;57767;42.068;24.752;2023-03-25T01:35:47;98592.31;;;8.93;60.55
70343;BME280;57767;42.068;24.752;2023-03-25T01:36:49;98589.88;;;8.91;60.90
70343;BME280;57767;42.068;24.752;2023-03-25T01:37:51;98588.66;;;8.94;60.22
70343;BME280;57767;42.068;24.752;2023-03-25T01:38:56;98573.47;;;8.83;60.72
70343;BME280;57767;42.068;24.752;2023-03-25T01:40:02;98580.97;;;8.79;60.41
70343;BME280;57767;42.068;24.752;2023-03-25T01:41:06;98584.22;;;8.81;60.32
70343;BME280;57767;42.068;24.752;2023-03-25T01:42:09;98578.72;;;8.89;60.64
70343;BME280;57767;42.068;24.752;2023-03-25T01:43:11;98573.06;;;8.92;59.90
70343;BME280;57767;42.068;24.752;2023-03-25T01:45:29;98567.41;;;8.82;59.69
70343;BME280;57767;42.068;24.752;2023-03-25T01:46:34;98587.84;;;8.87;60.41
70343;BME280;57767;42.068;24.752;2023-03-25T01:47:38;98579.56;;;8.83;60.14
70343;BME280;57767;42.068;24.752;2023-03-25T01:48:42;98573.47;;;8.89;60.18
70343;BME280;57767;42.068;24.752;2023-03-25T01:49:45;98576.69;;;8.91;60.16
70343;BME280;57767;42.068;24.752;2023-03-25T01:50:52;98569.22;;;8.88;60.98
70343;BME280;57767;42.068;24.752;2023-03-25T01:52:04;98566.41;;;8.83;60.76
70343;BME280;57767;42.068;24.752;2023-03-25T01:53:08;98566.56;;;8.75;60.62
70343;BME280;57767;42.068;24.752;2023-03-25T01:54:12;98560.72;;;8.80;60.88
70343;BME280;57767;42.068;24.752;2023-03-25T01:55:18;98566.00;;;8.86;60.64
70343;BME280;57767;42.068;24.752;2023-03-25T01:56:27;98568.00;;;8.91;60.35
70343;BME280;57767;42.068;24.752;2023-03-25T01:57:32;98556.25;;;8.87;60.02
70343;BME280;57767;42.068;24.752;2023-03-25T01:58:34;98572.06;;;8.93;59.54
70343;BME280;57767;42.068;24.752;2023-03-25T01:59:37;98566.38;;;8.96;60.48
70343;BME280;57767;42.068;24.752;2023-03-25T02:00:42;98553.00;;;8.91;60.69
70343;BME280;57767;42.068;24.752;2023-03-25T02:01:45;98562.31;;;8.94;60.45
70343;BME280;57767;42.068;24.752;2023-03-25T02:02:47;98557.06;;;8.87;60.67
70343;BME280;57767;42.068;24.752;2023-03-25T02:03:53;98567.19;;;8.97;60.59
70343;BME280;57767;42.068;24.752;2023-03-25T02:05:06;98561.72;;;8.98;60.17
70343;BME280;57767;42.068;24.752;2023-03-25T02:06:18;98557.28;;;8.99;60.47
70343;BME280;57767;42.068;24.752;2023-03-25T02:07:27;98554.63;;;8.99;59.96
70343;BME280;57767;42.068;24.752;2023-03-25T02:08:36;98560.28;;;8.89;59.84
70343;BME280;57767;42.068;24.752;2023-03-25T02:09:39;98554.63;;;8.92;60.17
70343;BME280;57767;42.068;24.752;2023-03-25T02:10:44;98559.50;;;8.95;60.23
70343;BME280;57767;42.068;24.752;2023-03-25T02:11:47;98544.09;;;8.92;60.19
70343;BME280;57767;42.068;24.752;2023-03-25T02:12:49;98538.22;;;8.90;60.08
70343;BME280;57767;42.068;24.752;2023-03-25T02:13:51;98541.47;;;8.99;60.16
70343;BME280;57767;42.068;24.752;2023-03-25T02:14:53;98546.50;;;9.01;59.80
70343;BME280;57767;42.068;24.752;2023-03-25T02:27:51;98558.47;;;8.96;59.46
70343;BME280;57767;42.068;24.752;2023-03-25T02:30:07;98547.94;;;8.96;59.62
70343;BME280;57767;42.068;24.752;2023-03-25T02:39:56;98539.22;;;8.89;59.42
70343;BME280;57767;42.068;24.752;2023-03-25T02:41:28;98538.84;;;8.92;59.89
70343;BME280;57767;42.068;24.752;2023-03-25T02:42:39;98541.47;;;8.92;59.86
70343;BME280;57767;42.068;24.752;2023-03-25T02:43:52;98532.97;;;8.90;59.55
70343;BME280;57767;42.068;24.752;2023-03-25T02:45:14;98552.19;;;8.91;60.00
70343;BME280;57767;42.068;24.752;2023-03-25T02:46:21;98540.66;;;8.92;59.98
70343;BME280;57767;42.068;24.752;2023-03-25T02:47:28;98537.22;;;8.91;60.20
70343;BME280;57767;42.068;24.752;2023-03-25T02:49:47;98536.81;;;8.94;60.14
70343;BME280;57767;42.068;24.752;2023-03-25T02:50:53;98535.41;;;8.98;60.24
70343;BME280;57767;42.068;24.752;2023-03-25T02:52:12;98538.63;;;8.94;60.22
70343;BME280;57767;42.068;24.752;2023-03-25T02:53:20;98533.97;;;8.89;60.50
70343;BME280;57767;42.068;24.752;2023-03-25T02:54:25;98532.34;;;8.75;61.18
70343;BME280;57767;42.068;24.752;2023-03-25T02:55:29;98531.78;;;8.73;61.14
70343;BME280;57767;42.068;24.752;2023-03-25T02:56:35;98533.97;;;8.76;59.90
70343;BME280;57767;42.068;24.752;2023-03-25T02:57:41;98510.91;;;8.72;60.06
70343;BME280;57767;42.068;24.752;2023-03-25T02:58:46;98527.72;;;8.84;60.01
70343;BME280;57767;42.068;24.752;2023-03-25T02:59:50;98527.50;;;8.85;60.17
70343;BME280;57767;42.068;24.752;2023-03-25T03:00:54;98535.19;;;8.87;60.05
70343;BME280;57767;42.068;24.752;2023-03-25T03:02:02;98530.16;;;8.85;60.42
70343;BME280;57767;42.068;24.752;2023-03-25T03:03:06;98526.69;;;8.85;60.51
70343;BME280;57767;42.068;24.752;2023-03-25T03:04:09;98524.66;;;8.80;60.73
70343;BME280;57767;42.068;24.752;2023-03-25T03:06:23;98524.66;;;8.80;60.80
70343;BME280;57767;42.068;24.752;2023-03-25T03:07:28;98520.22;;;8.81;61.02
70343;BME280;57767;42.068;24.752;2023-03-25T03:08:37;98516.97;;;8.85;60.97
70343;BME280;57767;42.068;24.752;2023-03-25T03:09:59;98522.06;;;8.67;60.92
70343;BME280;57767;42.068;24.752;2023-03-25T03:13:36;98507.69;;;8.56;61.35
70343;BME280;57767;42.068;24.752;2023-03-25T03:15:13;98512.13;;;8.49;61.47
70343;BME280;57767;42.068;24.752;2023-03-25T03:16:31;98507.88;;;8.42;61.47
70343;BME280;57767;42.068;24.752;2023-03-25T03:19:54;98506.84;;;8.23;61.92
70343;BME280;57767;42.068;24.752;2023-03-25T03:21:14;98504.41;;;8.15;62.67
70343;BME280;57767;42.068;24.752;2023-03-25T03:23:47;98499.94;;;8.15;62.23
70343;BME280;57767;42.068;24.752;2023-03-25T03:25:06;98496.31;;;8.16;62.16
70343;BME280;57767;42.068;24.752;2023-03-25T03:27:54;98497.72;;;8.19;62.70
70343;BME280;57767;42.068;24.752;2023-03-25T03:29:25;98504.63;;;8.20;62.25
70343;BME280;57767;42.068;24.752;2023-03-25T03:31:28;98500.78;;;8.22;63.12
70343;BME280;57767;42.068;24.752;2023-03-25T03:33:12;98500.56;;;8.24;62.62
70343;BME280;57767;42.068;24.752;2023-03-25T03:34:44;98501.56;;;8.16;62.10
70343;BME280;57767;42.068;24.752;2023-03-25T03:35:51;98498.94;;;8.10;62.72
70343;BME280;57767;42.068;24.752;2023-03-25T03:36:59;98501.97;;;8.13;62.58
70343;BME280;57767;42.068;24.752;2023-03-25T03:38:06;98500.34;;;8.06;62.92
70343;BME280;57767;42.068;24.752;2023-03-25T03:40:22;98493.84;;;8.02;63.64
70343;BME280;57767;42.068;24.752;2023-03-25T03:41:25;98492.66;;;7.98;63.68
70343;BME280;57767;42.068;24.752;2023-03-25T03:43:57;98493.88;;;7.95;63.93
70343;BME280;57767;42.068;24.752;2023-03-25T03:45:12;98443.44;;;7.65;63.60
70343;BME280;57767;42.068;24.752;2023-03-25T03:47:09;98485.34;;;7.93;63.00
70343;BME280;57767;42.068;24.752;2023-03-25T03:47:51;98498.69;;;7.98;63.56
70343;BME280;57767;42.068;24.752;2023-03-25T03:48:56;98496.69;;;8.00;63.38
70343;BME280;57767;42.068;24.752;2023-03-25T03:50:05;98502.38;;;8.04;62.61
70343;BME280;57767;42.068;24.752;2023-03-25T03:51:16;98501.13;;;8.00;62.59
70343;BME280;57767;42.068;24.752;2023-03-25T03:52:41;98504.78;;;8.05;63.33
70343;BME280;57767;42.068;24.752;2023-03-25T03:54:25;98506.41;;;8.06;63.21
70343;BME280;57767;42.068;24.752;2023-03-25T03:55:51;98507.22;;;8.07;63.16
70343;BME280;57767;42.068;24.752;2023-03-25T03:56:57;98513.69;;;8.11;62.59
70343;BME280;57767;42.068;24.752;2023-03-25T03:58:10;98514.50;;;8.11;62.51
70343;BME280;57767;42.068;24.752;2023-03-25T03:59:44;98503.97;;;8.11;62.68
70343;BME280;57767;42.068;24.752;2023-03-25T04:01:16;98497.09;;;7.97;63.40
70343;BME280;57767;42.068;24.752;2023-03-25T04:02:50;98503.75;;;8.00;63.53
70343;BME280;57767;42.068;24.752;2023-03-25T04:03:59;98496.69;;;8.00;63.51
70343;BME280;57767;42.068;24.752;2023-03-25T04:05:02;98507.81;;;8.02;63.62
70343;BME280;57767;42.068;24.752;2023-03-25T04:06:14;98487.75;;;7.88;63.54
70343;BME280;57767;42.068;24.752;2023-03-25T04:07:21;98497.88;;;7.91;63.92
70343;BME280;57767;42.068;24.752;2023-03-25T04:08:29;98498.47;;;7.80;64.10
70343;BME280;57767;42.068;24.752;2023-03-25T04:09:37;98501.09;;;7.80;64.10
70343;BME280;57767;42.068;24.752;2023-03-25T04:11:09;98501.88;;;7.74;64.70
70343;BME280;57767;42.068;24.752;2023-03-25T04:12:16;98508.75;;;7.75;64.62
70343;BME280;57767;42.068;24.752;2023-03-25T04:13:21;98493.41;;;7.72;64.43
70343;BME280;57767;42.068;24.752;2023-03-25T04:14:24;98502.50;;;7.76;64.21
70343;BME280;57767;42.068;24.752;2023-03-25T04:15:26;98485.50;;;7.65;64.67
70343;BME280;57767;42.068;24.752;2023-03-25T04:16:28;98498.66;;;7.72;64.82
70343;BME280;57767;42.068;24.752;2023-03-25T04:17:36;98503.69;;;7.73;64.80
70343;BME280;57767;42.068;24.752;2023-03-25T04:18:40;98497.44;;;7.74;64.20
70343;BME280;57767;42.068;24.752;2023-03-25T04:19:44;98506.31;;;7.73;64.31
70343;BME280;57767;42.068;24.752;2023-03-25T04:20:49;98498.03;;;7.70;64.44
70343;BME280;57767;42.068;24.752;2023-03-25T04:21:51;98492.19;;;7.68;65.04
70343;BME280;57767;42.068;24.752;2023-03-25T04:22:54;98467.06;;;7.45;64.97
70343;BME280;57767;42.068;24.752;2023-03-25T04:23:56;98503.69;;;7.67;65.37
70343;BME280;57767;42.068;24.752;2023-03-25T04:25:03;98474.13;;;7.51;65.21
70343;BME280;57767;42.068;24.752;2023-03-25T04:26:05;98497.00;;;7.64;65.42
70343;BME280;57767;42.068;24.752;2023-03-25T04:27:08;98495.19;;;7.65;64.68
70343;BME280;57767;42.068;24.752;2023-03-25T04:28:14;98497.03;;;7.71;65.23
70343;BME280;57767;42.068;24.752;2023-03-25T04:29:18;98499.88;;;7.76;65.58
70343;BME280;57767;42.068;24.752;2023-03-25T04:30:20;98503.50;;;7.75;64.63
70343;BME280;57767;42.068;24.752;2023-03-25T04:31:22;98485.88;;;7.62;64.86
70343;BME280;57767;42.068;24.752;2023-03-25T04:32:26;98503.53;;;7.81;64.84
70343;BME280;57767;42.068;24.752;2023-03-25T04:33:28;98512.22;;;7.82;64.15
70343;BME280;57767;42.068;24.752;2023-03-25T04:34:32;98502.34;;;7.84;63.71
70343;BME280;57767;42.068;24.752;2023-03-25T04:35:34;98509.59;;;7.88;64.43
70343;BME280;57767;42.068;24.752;2023-03-25T04:36:36;98509.22;;;7.91;64.77
70343;BME280;57767;42.068;24.752;2023-03-25T04:37:44;98512.88;;;7.97;65.36
70343;BME280;57767;42.068;24.752;2023-03-25T04:38:46;98509.44;;;8.03;65.22
70343;BME280;57767;42.068;24.752;2023-03-25T04:39:48;98513.91;;;8.09;65.06
70343;BME280;57767;42.068;24.752;2023-03-25T04:40:50;98514.91;;;8.15;65.13
70343;BME280;57767;42.068;24.752;2023-03-25T04:41:52;98501.97;;;8.13;64.68
70343;BME280;57767;42.068;24.752;2023-03-25T04:43:04;98521.81;;;8.29;65.12
70343;BME280;57767;42.068;24.752;2023-03-25T04:44:06;98503.44;;;8.36;64.91
70343;BME280;57767;42.068;24.752;2023-03-25T04:45:12;98509.31;;;8.44;64.54
70343;BME280;57767;42.068;24.752;2023-03-25T04:46:17;98514.56;;;8.57;65.06
70343;BME280;57767;42.068;24.752;2023-03-25T04:47:22;98517.41;;;8.69;65.08
70343;BME280;57767;42.068;24.752;2023-03-25T04:48:27;98515.56;;;8.83;65.45
70343;BME280;57767;42.068;24.752;2023-03-25T04:49:32;98518.56;;;8.93;65.27
70343;BME280;57767;42.068;24.752;2023-03-25T04:50:34;98517.13;;;9.04;65.22
70343;BME280;57767;42.068;24.752;2023-03-25T04:51:35;98512.44;;;9.19;65.02
70343;BME280;57767;42.068;24.752;2023-03-25T04:52:38;98518.88;;;9.36;65.32
70343;BME280;57767;42.068;24.752;2023-03-25T04:53:40;98506.28;;;9.45;65.20
70343;BME280;57767;42.068;24.752;2023-03-25T04:54:43;98516.91;;;9.69;64.86
70343;BME280;57767;42.068;24.752;2023-03-25T04:55:48;98520.09;;;9.85;65.11
70343;BME280;57767;42.068;24.752;2023-03-25T04:56:51;98521.78;;;10.04;64.25
70343;BME280;57767;42.068;24.752;2023-03-25T04:57:53;98516.44;;;10.24;64.58
70343;BME280;57767;42.068;24.752;2023-03-25T04:58:55;98518.09;;;10.43;62.92
70343;BME280;57767;42.068;24.752;2023-03-25T04:59:57;98516.75;;;10.59;62.89
70343;BME280;57767;42.068;24.752;2023-03-25T05:00:58;98531.41;;;10.80;61.49
70343;BME280;57767;42.068;24.752;2023-03-25T05:02:07;98522.84;;;11.02;61.94
70343;BME280;57767;42.068;24.752;2023-03-25T05:03:14;98511.13;;;11.17;61.50
70343;BME280;57767;42.068;24.752;2023-03-25T05:04:16;98524.19;;;11.48;60.47
70343;BME280;57767;42.068;24.752;2023-03-25T05:05:21;98520.50;;;11.67;58.46
70343;BME280;57767;42.068;24.752;2023-03-25T05:06:23;98519.03;;;11.90;57.72
70343;BME280;57767;42.068;24.752;2023-03-25T05:07:27;98518.16;;;12.07;57.21
70343;BME280;57767;42.068;24.752;2023-03-25T05:08:30;98524.31;;;12.31;57.71
70343;BME280;57767;42.068;24.752;2023-03-25T05:09:32;98520.69;;;12.55;57.83
70343;BME280;57767;42.068;24.752;2023-03-25T05:10:34;98515.16;;;12.80;57.56
70343;BME280;57767;42.068;24.752;2023-03-25T05:11:37;98514.25;;;13.10;56.47
70343;BME280;57767;42.068;24.752;2023-03-25T05:12:40;98518.84;;;13.38;56.58
70343;BME280;57767;42.068;24.752;2023-03-25T05:13:41;98498.84;;;13.58;56.18
70343;BME280;57767;42.068;24.752;2023-03-25T05:14:43;98507.97;;;13.91;54.36
70343;BME280;57767;42.068;24.752;2023-03-25T05:15:46;98512.69;;;14.17;53.33
70343;BME280;57767;42.068;24.752;2023-03-25T05:16:48;98509.19;;;14.45;53.38
70343;BME280;57767;42.068;24.752;2023-03-25T05:17:51;98507.00;;;14.76;52.06
70343;BME280;57767;42.068;24.752;2023-03-25T05:18:53;98504.81;;;15.06;51.65
70343;BME280;57767;42.068;24.752;2023-03-25T05:19:54;98501.97;;;15.34;50.75
70343;BME280;57767;42.068;24.752;2023-03-25T05:20:57;98507.81;;;15.75;50.79
70343;BME280;57767;42.068;24.752;2023-03-25T05:22:01;98484.75;;;15.86;49.42
70343;BME280;57767;42.068;24.752;2023-03-25T05:23:03;98503.78;;;16.26;47.46
70343;BME280;57767;42.068;24.752;2023-03-25T05:24:10;98510.69;;;16.54;47.39
70343;BME280;57767;42.068;24.752;2023-03-25T05:25:12;98507.44;;;16.79;45.65
70343;BME280;57767;42.068;24.752;2023-03-25T05:26:14;98511.59;;;17.02;44.76
70343;BME280;57767;42.068;24.752;2023-03-25T05:27:15;98500.50;;;17.20;44.48
70343;BME280;57767;42.068;24.752;2023-03-25T05:28:20;98500.84;;;17.39;44.05
70343;BME280;57767;42.068;24.752;2023-03-25T05:29:22;98504.44;;;17.65;43.51
70343;BME280;57767;42.068;24.752;2023-03-25T05:30:24;98498.91;;;17.86;43.15
70343;BME280;57767;42.068;24.752;2023-03-25T05:31:33;98508.31;;;18.24;42.48
70343;BME280;57767;42.068;24.752;2023-03-25T05:32:35;98497.13;;;18.48;41.44
70343;BME280;57767;42.068;24.752;2023-03-25T05:33:38;98515.34;;;18.71;41.50
70343;BME280;57767;42.068;24.752;2023-03-25T05:34:45;98500.84;;;18.98;42.14
70343;BME280;57767;42.068;24.752;2023-03-25T05:35:47;98507.47;;;19.20;40.45
70343;BME280;57767;42.068;24.752;2023-03-25T05:36:50;98501.03;;;19.37;39.65
70343;BME280;57767;42.068;24.752;2023-03-25T05:37:52;98514.09;;;19.53;39.10
70343;BME280;57767;42.068;24.752;2023-03-25T05:38:54;98496.94;;;19.59;39.10
70343;BME280;57767;42.068;24.752;2023-03-25T05:39:56;98511.06;;;19.75;39.68
70343;BME280;57767;42.068;24.752;2023-03-25T05:40:59;98506.69;;;19.89;38.08
70343;BME280;57767;42.068;24.752;2023-03-25T05:42:01;98506.41;;;19.91;37.53
70343;BME280;57767;42.068;24.752;2023-03-25T05:43:03;98502.59;;;20.02;37.10
70343;BME280;57767;42.068;24.752;2023-03-25T05:44:09;98505.72;;;20.14;37.27
70343;BME280;57767;42.068;24.752;2023-03-25T05:45:15;98504.59;;;20.25;37.21
70343;BME280;57767;42.068;24.752;2023-03-25T05:46:17;98508.25;;;20.39;37.11
70343;BME280;57767;42.068;24.752;2023-03-25T05:47:21;98508.72;;;20.52;36.94
70343;BME280;57767;42.068;24.752;2023-03-25T05:48:24;98506.22;;;20.60;36.38
70343;BME280;57767;42.068;24.752;2023-03-25T05:49:27;98503.97;;;20.72;35.53
70343;BME280;57767;42.068;24.752;2023-03-25T05:50:29;98502.00;;;20.83;34.84
70343;BME280;57767;42.068;24.752;2023-03-25T05:51:32;98499.19;;;20.93;35.24
70343;BME280;57767;42.068;24.752;2023-03-25T05:52:38;98504.94;;;21.10;35.00
70343;BME280;57767;42.068;24.752;2023-03-25T05:53:43;98505.94;;;21.20;34.91
70343;BME280;57767;42.068;24.752;2023-03-25T05:54:46;98502.94;;;21.26;34.83
70343;BME280;57767;42.068;24.752;2023-03-25T05:55:51;98506.50;;;21.40;34.72
70343;BME280;57767;42.068;24.752;2023-03-25T05:56:53;98500.16;;;21.55;33.90
70343;BME280;57767;42.068;24.752;2023-03-25T05:57:55;98502.75;;;21.65;33.27
70343;BME280;57767;42.068;24.752;2023-03-25T05:58:57;98502.13;;;21.68;33.40
70343;BME280;57767;42.068;24.752;2023-03-25T05:59:59;98498.53;;;21.78;33.06
70343;BME280;57767;42.068;24.752;2023-03-25T06:01:01;98501.88;;;21.89;32.88
70343;BME280;57767;42.068;24.752;2023-03-25T06:02:06;98500.09;;;22.03;32.88
70343;BME280;57767;42.068;24.752;2023-03-25T06:03:09;98492.88;;;22.17;33.13
70343;BME280;57767;42.068;24.752;2023-03-25T06:04:12;98501.22;;;22.34;32.87
70343;BME280;57767;42.068;24.752;2023-03-25T06:05:15;98502.09;;;22.48;31.74
70343;BME280;57767;42.068;24.752;2023-03-25T06:06:17;98492.53;;;22.56;31.81
70343;BME280;57767;42.068;24.752;2023-03-25T06:07:21;98496.75;;;22.62;31.25
70343;BME280;57767;42.068;24.752;2023-03-25T06:08:23;98497.16;;;22.69;31.53
70343;BME280;57767;42.068;24.752;2023-03-25T06:09:26;98503.19;;;22.80;31.61
70343;BME280;57767;42.068;24.752;2023-03-25T06:10:31;98506.22;;;22.92;32.22
70343;BME280;57767;42.068;24.752;2023-03-25T06:11:33;98504.16;;;23.03;31.46
70343;BME280;57767;42.068;24.752;2023-03-25T06:12:39;98509.72;;;23.06;31.96
70343;BME280;57767;42.068;24.752;2023-03-25T06:13:42;98502.34;;;23.12;31.34
70343;BME280;57767;42.068;24.752;2023-03-25T06:14:50;98506.84;;;23.16;31.36
70343;BME280;57767;42.068;24.752;2023-03-25T06:15:54;98496.69;;;23.27;31.13
70343;BME280;57767;42.068;24.752;2023-03-25T06:16:57;98502.47;;;23.34;30.71
70343;BME280;57767;42.068;24.752;2023-03-25T06:17:59;98513.03;;;23.44;30.84
70343;BME280;57767;42.068;24.752;2023-03-25T06:19:01;98497.00;;;23.53;30.62
70343;BME280;57767;42.068;24.752;2023-03-25T06:20:08;98513.47;;;23.65;30.58
70343;BME280;57767;42.068;24.752;2023-03-25T06:21:13;98508.66;;;23.76;30.82
70343;BME280;57767;42.068;24.752;2023-03-25T06:22:14;98500.13;;;23.82;30.81